Fesco Vladimir — 5BSL2 — position and weather

sailwx.info

Track history (hours):
 
Tides and Currents Weather Stations Pressure Air Temp Water Temp Dewpoint Dewpoint Depression Visibility Wind Speed Wind Dir Waves Ship Positions

Fesco Vladimir

Last reported at 2016-Jul-29 07:33 UTC. Time now 2016-Jul-29 07:50 UTC.
Position N 59°53' E 030°11'.

Length 184 m; draft 8.4 m.

Type: Ship (hazmat cat A). MMSI: 209777000.

Date/timePositionNaut miles runAvg speedWind from/ knotsBaromVisibWave heightAir tempDewpointWater temp
2016-Jul-29 07:33N 59°53' E 030°11'0 0.0
2016-Jul-29 06:33N 59°53' E 030°11'0 0.0
2016-Jul-29 05:33N 59°53' E 030°11'0 0.0
2016-Jul-29 04:33N 59°53' E 030°11'0 0.0
2016-Jul-29 03:33N 59°53' E 030°11'0 0.0
2016-Jul-29 02:33N 59°53' E 030°11'0 0.0
2016-Jul-29 01:33N 59°53' E 030°11'0 0.0
2016-Jul-29 00:33N 59°53' E 030°11'0 0.0
2016-Jul-28 23:33N 59°53' E 030°11'0 0.0
2016-Jul-28 22:33N 59°53' E 030°11'0 0.0
2016-Jul-28 21:33N 59°53' E 030°11'0 0.0
2016-Jul-28 20:33N 59°53' E 030°11'0 0.0
2016-Jul-28 19:33N 59°53' E 030°11'0 0.0
2016-Jul-28 18:30N 59°53' E 030°11'0 0.0
2016-Jul-28 17:33N 59°53' E 030°11'0 0.0
2016-Jul-28 16:33N 59°53' E 030°11'0 0.0
2016-Jul-28 15:33N 59°53' E 030°11'1 0.8
2016-Jul-28 14:34N 59°53' E 030°10'10 9.6
2016-Jul-28 13:33N 59°57' E 029°52'1010.0
2016-Jul-28 12:33N 60°01' E 029°34'7 7.0
2016-Jul-28 11:30N 60°01' E 029°19'8 8.4
2016-Jul-28 10:33N 60°02' E 029°03'1010.3
2016-Jul-28 09:33N 60°00' E 028°43'1111.1
2016-Jul-28 08:33N 59°52' E 028°29'1110.9
2016-Jul-28 07:33N 59°41' E 028°25'1 0.8
2016-Jul-28 06:31N 59°40' E 028°24'0 0.0
2016-Jul-28 05:31N 59°40' E 028°24'0 0.0
2016-Jul-28 04:31N 59°40' E 028°24'0 0.0
2016-Jul-28 03:19N 59°40' E 028°24'0 0.0
2016-Jul-28 02:25N 59°40' E 028°24'0 0.0
2016-Jul-28 01:25N 59°40' E 028°24'0 0.0
2016-Jul-28 00:25N 59°40' E 028°24'0 0.0
2016-Jul-27 23:22N 59°40' E 028°24'0 0.0
2016-Jul-27 22:28N 59°40' E 028°24'0 0.0
2016-Jul-27 21:28N 59°40' E 028°24'0 0.0
2016-Jul-27 20:28N 59°40' E 028°24'0 0.0
2016-Jul-27 19:31N 59°40' E 028°24'0 0.2
2016-Jul-27 18:33N 59°41' E 028°24'9 8.8
2016-Jul-27 17:33N 59°49' E 028°25'1211.7
2016-Jul-27 16:34N 59°60' E 028°36'1212.0
2016-Jul-27 15:33N 60°07' E 028°16'1313.0
2016-Jul-27 14:33N 60°10' E 027°50'1312.6
2016-Jul-27 13:33N 60°05' E 027°28'1312.6
2016-Jul-27 12:33N 59°58' E 027°06'8 8.4
2016-Jul-27 11:33N 59°59' E 026°49'1212.2
2016-Jul-27 10:33N 59°57' E 026°25'1313.0
2016-Jul-27 09:33N 59°54' E 025°60'1312.9
2016-Jul-27 08:33N 59°50' E 025°35'1413.2
2016-Jul-27 07:28N 59°48' E 025°07'1213.3
2016-Jul-27 06:33N 59°45' E 024°43'1812.9
2016-Jul-27 05:11N 59°40' E 024°09'812.9
2016-Jul-27 04:33N 59°38' E 023°55'1313.3
2016-Jul-27 03:33N 59°33' E 023°30'1413.3
2016-Jul-27 02:32N 59°30' E 023°04'1211.0
2016-Jul-27 01:24N 59°25' E 022°41'8 8.8
2016-Jul-27 00:33N 59°21' E 022°29'30 8.8
2016-Jul-26 21:05N 59°02' E 021°42'5 8.8
2016-Jul-26 20:33N 58°59' E 021°36'2712.2
2016-Jul-26 18:22N 58°37' E 021°06'3813.1
2016-Jul-26 15:29N 58°07' E 020°23'1213.3
2016-Jul-26 14:33N 57°57' E 020°09'5613.9
2016-Jul-26 10:30N 57°12' E 019°06'2812.9
2016-Jul-26 08:20N 56°49' E 018°34'1613.0
2016-Jul-26 07:05N 56°40' E 018°11'3713.2
2016-Jul-26 04:18N 56°17' E 017°18'1113.5
2016-Jul-26 03:28N 56°10' E 017°02'1313.2
2016-Jul-26 02:27N 56°02' E 016°43'2713.3
2016-Jul-26 00:26N 55°49' E 016°02'1213.2
2016-Jul-25 23:33N 55°43' E 015°44'1313.3
2016-Jul-25 22:34N 55°37' E 015°23'1313.2
2016-Jul-25 21:33N 55°30' E 015°03'1313.0
2016-Jul-25 20:33N 55°24' E 014°42'1312.9
2016-Jul-25 19:33N 55°14' E 014°28'1313.1
2016-Jul-25 18:33N 55°04' E 014°13'1312.5
2016-Jul-25 17:33N 54°58' E 013°53'1312.8
2016-Jul-25 16:33N 54°54' E 013°33'1312.5
2016-Jul-25 15:33N 54°50' E 013°12'1212.5
2016-Jul-25 14:33N 54°46' E 012°52'1212.3
2016-Jul-25 13:33N 54°40' E 012°32'1211.9
2016-Jul-25 12:34N 54°32' E 012°17'1110.7
2016-Jul-25 11:33N 54°24' E 012°05'1212.2
2016-Jul-25 10:33N 54°26' E 011°44'1212.1
2016-Jul-25 09:34N 54°31' E 011°26'1111.4
2016-Jul-25 08:34N 54°36' E 011°08'1212.5
2016-Jul-25 07:34N 54°34' E 010°46'1312.7
2016-Jul-25 06:34N 54°31' E 010°25'1111.1
2016-Jul-25 05:33N 54°23' E 010°12'2 2.4
2016-Jul-25 04:33N 54°22' E 010°08'5 4.6
2016-Jul-25 03:33N 54°21' E 010°01'5 4.9
2016-Jul-25 02:33N 54°22' E 009°52'5 5.4
2016-Jul-25 01:33N 54°20' E 009°43'5 5.2
2016-Jul-25 00:32N 54°16' E 009°37'5 5.4
2016-Jul-24 23:34N 54°12' E 009°32'7 6.6
2016-Jul-24 22:33N 54°09' E 009°22'6 5.9
2016-Jul-24 21:34N 54°03' E 009°18'3 2.9
2016-Jul-24 20:33N 54°00' E 009°18'7 6.7
2016-Jul-24 19:34N 53°55' E 009°11'2 2.4
2016-Jul-24 18:33N 53°53' E 009°08'6 5.8
2016-Jul-24 17:34N 53°52' E 009°18'1413.7
2016-Jul-24 16:34N 53°40' E 009°30'10 9.8
2016-Jul-24 15:34N 53°34' E 009°43'7 7.4
2016-Jul-24 14:34N 53°32' E 009°55'0 0.3
2016-Jul-24 13:33N 53°32' E 009°55'0 0.0
2016-Jul-24 12:33N 53°32' E 009°55'0 0.0
2016-Jul-24 11:32N 53°32' E 009°55'0 0.0
2016-Jul-24 10:32N 53°32' E 009°55'0 0.0
2016-Jul-24 09:32N 53°32' E 009°55'0 0.0
2016-Jul-24 08:32N 53°32' E 009°55'0 0.0
2016-Jul-24 07:32N 53°32' E 009°55'0 0.0
2016-Jul-24 06:32N 53°32' E 009°55'0 0.0
2016-Jul-24 05:32N 53°32' E 009°55'0 0.0
2016-Jul-24 04:32N 53°32' E 009°55'0 0.0
2016-Jul-24 03:32N 53°32' E 009°55'1 1.1
2016-Jul-24 02:33N 53°32' E 009°54'1010.1
2016-Jul-24 01:33N 53°35' E 009°37'1414.4
2016-Jul-24 00:33N 53°47' E 009°23'1312.6
2016-Jul-23 23:34N 53°52' E 009°04'1211.8
2016-Jul-23 22:33N 53°52' E 008°44'1414.1
2016-Jul-23 21:34N 53°59' E 008°23'1313.0
2016-Jul-23 20:33N 53°59' E 008°01'1413.7
2016-Jul-23 19:33N 53°56' E 007°38'1110.7
2016-Jul-23 18:33N 53°54' E 007°21'1211.7
2016-Jul-23 17:33N 53°51' E 007°02'1111.2
2016-Jul-23 16:33N 53°48' E 006°43'5 4.6
2016-Jul-23 15:34N 53°47' E 006°36'1 1.0
2016-Jul-23 14:33N 53°47' E 006°37'1 0.5
2016-Jul-23 13:33N 53°47' E 006°37'1 1.1
2016-Jul-23 12:33N 53°47' E 006°35'6 5.7
2016-Jul-23 11:33N 53°45' E 006°26'8 7.9
2016-Jul-23 10:33N 53°44' E 006°13'1312.6
2016-Jul-23 09:33N 53°39' E 005°53'1413.6
2016-Jul-23 08:34N 53°35' E 005°31'1413.7
2016-Jul-23 07:33N 53°30' E 005°10'1413.7
2016-Jul-23 06:31N 53°25' E 004°47'2613.4
2016-Jul-23 04:33N 53°03' E 004°23'1312.8
2016-Jul-23 03:33N 52°52' E 004°13'1212.5
2016-Jul-23 02:33N 52°41' E 004°03'1211.7
2016-Jul-23 01:33N 52°31' E 003°54'10 9.9
2016-Jul-23 00:33N 52°21' E 003°52'7 6.9
2016-Jul-22 23:33N 52°14' E 003°53'6 6.2
2016-Jul-22 22:33N 52°08' E 003°54'7 6.7
2016-Jul-22 21:33N 52°02' E 003°57'6 6.0
2016-Jul-22 20:33N 51°57' E 004°04'0 0.0
2016-Jul-22 19:32N 51°57' E 004°04'0 0.0
2016-Jul-22 18:32N 51°57' E 004°04'0 0.0
2016-Jul-22 17:32N 51°57' E 004°04'0 0.0
2016-Jul-22 16:32N 51°57' E 004°04'0 0.0
2016-Jul-22 15:32N 51°57' E 004°04'0 0.0
2016-Jul-22 14:29N 51°57' E 004°04'0 0.0
2016-Jul-22 13:32N 51°57' E 004°04'0 0.0
2016-Jul-22 12:32N 51°57' E 004°04'0 0.0
2016-Jul-22 11:32N 51°57' E 004°04'0 0.0
2016-Jul-22 10:32N 51°57' E 004°04'0 0.0
2016-Jul-22 09:32N 51°57' E 004°04'1 0.8
2016-Jul-22 08:32N 51°58' E 004°04'0 0.0
2016-Jul-22 07:32N 51°58' E 004°04'0 0.0
2016-Jul-22 04:32N 51°58' E 004°04'0 0.0
2016-Jul-22 03:32N 51°58' E 004°04'0 0.0
2016-Jul-22 02:32N 51°58' E 004°04'0 0.0
2016-Jul-22 01:32N 51°58' E 004°04'0 0.0
2016-Jul-22 00:32N 51°58' E 004°04'0 0.0
2016-Jul-21 23:32N 51°58' E 004°04'0 0.0
2016-Jul-21 22:32N 51°58' E 004°04'0 0.0
2016-Jul-21 21:32N 51°58' E 004°04'2 1.6
2016-Jul-21 20:33N 51°58' E 004°02'0 0.4
2016-Jul-21 19:32N 51°59' E 004°02'0 0.0
2016-Jul-21 18:32N 51°59' E 004°02'0 0.0
2016-Jul-21 17:32N 51°59' E 004°02'0 0.0
2016-Jul-21 16:32N 51°59' E 004°02'0 0.0
2016-Jul-21 15:32N 51°59' E 004°02'0 0.0
2016-Jul-21 14:32N 51°59' E 004°02'0 0.0
2016-Jul-21 13:32N 51°59' E 004°02'0 0.0
2016-Jul-21 12:32N 51°59' E 004°02'0 0.0
2016-Jul-21 11:32N 51°59' E 004°02'0 0.0
2016-Jul-21 10:32N 51°59' E 004°02'0 0.0
2016-Jul-21 09:32N 51°59' E 004°02'0 0.0
2016-Jul-21 08:32N 51°59' E 004°02'0 0.0
2016-Jul-21 07:32N 51°59' E 004°02'0 0.0
2016-Jul-21 06:31N 51°59' E 004°02'0 0.0
2016-Jul-21 05:31N 51°59' E 004°02'1 1.0
2016-Jul-21 04:33N 51°59' E 004°02'1211.6
2016-Jul-21 03:34N 52°06' E 003°46'1414.1
2016-Jul-21 02:33N 52°20' E 003°48'1312.5
2016-Jul-21 01:33N 52°32' E 003°51'1313.2
2016-Jul-21 00:34N 52°45' E 003°56'1616.0
2016-Jul-20 23:33N 53°00' E 004°05'1616.7
2016-Jul-20 22:34N 53°12' E 004°25'2812.0
2016-Jul-20 20:13N 53°32' E 004°57'710.6
2016-Jul-20 19:33N 53°35' E 005°08'1110.7
2016-Jul-20 18:33N 53°38' E 005°25'1111.2
2016-Jul-20 17:33N 53°42' E 005°43'1312.9
2016-Jul-20 16:33N 53°46' E 006°03'1414.3
2016-Jul-20 15:33N 53°51' E 006°26'1514.6
2016-Jul-20 14:33N 53°54' E 006°50'1414.3
2016-Jul-20 13:34N 53°58' E 007°14'1413.7
2016-Jul-20 12:33N 54°01' E 007°36'1312.9
2016-Jul-20 11:33N 54°01' E 007°58'1313.3
2016-Jul-20 10:33N 53°60' E 008°21'1313.1
2016-Jul-20 09:33N 53°54' E 008°41'1212.1
2016-Jul-20 08:33N 53°51' E 009°01'5 5.0
2016-Jul-20 07:33N 53°54' E 009°09'3 3.0
2016-Jul-20 06:34N 53°56' E 009°12'7 7.0
2016-Jul-20 05:33N 54°02' E 009°18'7 7.0
2016-Jul-20 04:32N 54°09' E 009°21'7 6.6
2016-Jul-20 03:33N 54°11' E 009°31'17 5.4
2016-Jul-20 00:28N 54°21' E 009°55'5 5.3
2016-Jul-19 23:33N 54°22' E 010°04'3 3.0
2016-Jul-19 22:33N 54°22' E 010°09'3 2.7
2016-Jul-19 21:33N 54°24' E 010°12'9 9.4
2016-Jul-19 20:33N 54°31' E 010°22'8 8.5
2016-Jul-19 19:33N 54°34' E 010°35'1212.3
2016-Jul-19 18:33N 54°35' E 010°57'1212.4
2016-Jul-19 17:33N 54°34' E 011°18'1313.3
2016-Jul-19 16:33N 54°28' E 011°39'1312.5
2016-Jul-19 15:33N 54°26' E 011°60'1111.0
2016-Jul-19 14:33N 54°33' E 012°14'4012.9
2016-Jul-19 11:28N 54°54' E 013°13'1213.4
2016-Jul-19 10:33N 54°58' E 013°33'1313.1
2016-Jul-19 09:33N 55°02' E 013°55'1313.0
2016-Jul-19 08:33N 55°10' E 014°13'1313.5
2016-Jul-19 07:33N 55°20' E 014°28'  
Track history (hours):
 
Tides and Currents Weather Stations Pressure Air Temp Water Temp Dewpoint Dewpoint Depression Visibility Wind Speed Wind Dir Waves Ship Positions

Fesco Vladimir

Last reported at 2016-Jul-29 07:33 UTC. Time now 2016-Jul-29 07:50 UTC.
Position N 59°53' E 030°11'.

Length 184 m; draft 8.4 m.

Type: Ship (hazmat cat A). MMSI: 209777000.

Date/timePositionNaut miles runAvg speedWind from/ knotsBaromVisibWave heightAir tempDewpointWater temp
2016-Jul-29 07:33N 59°53' E 030°11'0 0.0
2016-Jul-29 06:33N 59°53' E 030°11'0 0.0
2016-Jul-29 05:33N 59°53' E 030°11'0 0.0
2016-Jul-29 04:33N 59°53' E 030°11'0 0.0
2016-Jul-29 03:33N 59°53' E 030°11'0 0.0
2016-Jul-29 02:33N 59°53' E 030°11'0 0.0
2016-Jul-29 01:33N 59°53' E 030°11'0 0.0
2016-Jul-29 00:33N 59°53' E 030°11'0 0.0
2016-Jul-28 23:33N 59°53' E 030°11'0 0.0
2016-Jul-28 22:33N 59°53' E 030°11'0 0.0
2016-Jul-28 21:33N 59°53' E 030°11'0 0.0
2016-Jul-28 20:33N 59°53' E 030°11'0 0.0
2016-Jul-28 19:33N 59°53' E 030°11'0 0.0
2016-Jul-28 18:30N 59°53' E 030°11'0 0.0
2016-Jul-28 17:33N 59°53' E 030°11'0 0.0
2016-Jul-28 16:33N 59°53' E 030°11'0 0.0
2016-Jul-28 15:33N 59°53' E 030°11'1 0.8
2016-Jul-28 14:34N 59°53' E 030°10'10 9.6
2016-Jul-28 13:33N 59°57' E 029°52'1010.0
2016-Jul-28 12:33N 60°01' E 029°34'7 7.0
2016-Jul-28 11:30N 60°01' E 029°19'8 8.4
2016-Jul-28 10:33N 60°02' E 029°03'1010.3
2016-Jul-28 09:33N 60°00' E 028°43'1111.1
2016-Jul-28 08:33N 59°52' E 028°29'1110.9
2016-Jul-28 07:33N 59°41' E 028°25'1 0.8
2016-Jul-28 06:31N 59°40' E 028°24'0 0.0
2016-Jul-28 05:31N 59°40' E 028°24'0 0.0
2016-Jul-28 04:31N 59°40' E 028°24'0 0.0
2016-Jul-28 03:19N 59°40' E 028°24'0 0.0
2016-Jul-28 02:25N 59°40' E 028°24'0 0.0
2016-Jul-28 01:25N 59°40' E 028°24'0 0.0
2016-Jul-28 00:25N 59°40' E 028°24'0 0.0
2016-Jul-27 23:22N 59°40' E 028°24'0 0.0
2016-Jul-27 22:28N 59°40' E 028°24'0 0.0
2016-Jul-27 21:28N 59°40' E 028°24'0 0.0
2016-Jul-27 20:28N 59°40' E 028°24'0 0.0
2016-Jul-27 19:31N 59°40' E 028°24'0 0.2
2016-Jul-27 18:33N 59°41' E 028°24'9 8.8
2016-Jul-27 17:33N 59°49' E 028°25'1211.7
2016-Jul-27 16:34N 59°60' E 028°36'1212.0
2016-Jul-27 15:33N 60°07' E 028°16'1313.0
2016-Jul-27 14:33N 60°10' E 027°50'1312.6
2016-Jul-27 13:33N 60°05' E 027°28'1312.6
2016-Jul-27 12:33N 59°58' E 027°06'8 8.4
2016-Jul-27 11:33N 59°59' E 026°49'1212.2
2016-Jul-27 10:33N 59°57' E 026°25'1313.0
2016-Jul-27 09:33N 59°54' E 025°60'1312.9
2016-Jul-27 08:33N 59°50' E 025°35'1413.2
2016-Jul-27 07:28N 59°48' E 025°07'1213.3
2016-Jul-27 06:33N 59°45' E 024°43'1812.9
2016-Jul-27 05:11N 59°40' E 024°09'812.9
2016-Jul-27 04:33N 59°38' E 023°55'1313.3
2016-Jul-27 03:33N 59°33' E 023°30'1413.3
2016-Jul-27 02:32N 59°30' E 023°04'1211.0
2016-Jul-27 01:24N 59°25' E 022°41'8 8.8
2016-Jul-27 00:33N 59°21' E 022°29'30 8.8
2016-Jul-26 21:05N 59°02' E 021°42'5 8.8
2016-Jul-26 20:33N 58°59' E 021°36'2712.2
2016-Jul-26 18:22N 58°37' E 021°06'3813.1
2016-Jul-26 15:29N 58°07' E 020°23'1213.3
2016-Jul-26 14:33N 57°57' E 020°09'5613.9
2016-Jul-26 10:30N 57°12' E 019°06'2812.9
2016-Jul-26 08:20N 56°49' E 018°34'1613.0
2016-Jul-26 07:05N 56°40' E 018°11'3713.2
2016-Jul-26 04:18N 56°17' E 017°18'1113.5
2016-Jul-26 03:28N 56°10' E 017°02'1313.2
2016-Jul-26 02:27N 56°02' E 016°43'2713.3
2016-Jul-26 00:26N 55°49' E 016°02'1213.2
2016-Jul-25 23:33N 55°43' E 015°44'1313.3
2016-Jul-25 22:34N 55°37' E 015°23'1313.2
2016-Jul-25 21:33N 55°30' E 015°03'1313.0
2016-Jul-25 20:33N 55°24' E 014°42'1312.9
2016-Jul-25 19:33N 55°14' E 014°28'1313.1
2016-Jul-25 18:33N 55°04' E 014°13'1312.5
2016-Jul-25 17:33N 54°58' E 013°53'1312.8
2016-Jul-25 16:33N 54°54' E 013°33'1312.5
2016-Jul-25 15:33N 54°50' E 013°12'1212.5
2016-Jul-25 14:33N 54°46' E 012°52'1212.3
2016-Jul-25 13:33N 54°40' E 012°32'1211.9
2016-Jul-25 12:34N 54°32' E 012°17'1110.7
2016-Jul-25 11:33N 54°24' E 012°05'1212.2
2016-Jul-25 10:33N 54°26' E 011°44'1212.1
2016-Jul-25 09:34N 54°31' E 011°26'1111.4
2016-Jul-25 08:34N 54°36' E 011°08'1212.5
2016-Jul-25 07:34N 54°34' E 010°46'1312.7
2016-Jul-25 06:34N 54°31' E 010°25'1111.1
2016-Jul-25 05:33N 54°23' E 010°12'2 2.4
2016-Jul-25 04:33N 54°22' E 010°08'5 4.6
2016-Jul-25 03:33N 54°21' E 010°01'5 4.9
2016-Jul-25 02:33N 54°22' E 009°52'5 5.4
2016-Jul-25 01:33N 54°20' E 009°43'5 5.2
2016-Jul-25 00:32N 54°16' E 009°37'5 5.4
2016-Jul-24 23:34N 54°12' E 009°32'7 6.6
2016-Jul-24 22:33N 54°09' E 009°22'6 5.9
2016-Jul-24 21:34N 54°03' E 009°18'3 2.9
2016-Jul-24 20:33N 54°00' E 009°18'7 6.7
2016-Jul-24 19:34N 53°55' E 009°11'2 2.4
2016-Jul-24 18:33N 53°53' E 009°08'6 5.8
2016-Jul-24 17:34N 53°52' E 009°18'1413.7
2016-Jul-24 16:34N 53°40' E 009°30'10 9.8
2016-Jul-24 15:34N 53°34' E 009°43'7 7.4
2016-Jul-24 14:34N 53°32' E 009°55'0 0.3
2016-Jul-24 13:33N 53°32' E 009°55'0 0.0
2016-Jul-24 12:33N 53°32' E 009°55'0 0.0
2016-Jul-24 11:32N 53°32' E 009°55'0 0.0
2016-Jul-24 10:32N 53°32' E 009°55'0 0.0
2016-Jul-24 09:32N 53°32' E 009°55'0 0.0
2016-Jul-24 08:32N 53°32' E 009°55'0 0.0
2016-Jul-24 07:32N 53°32' E 009°55'0 0.0
2016-Jul-24 06:32N 53°32' E 009°55'0 0.0
2016-Jul-24 05:32N 53°32' E 009°55'0 0.0
2016-Jul-24 04:32N 53°32' E 009°55'0 0.0
2016-Jul-24 03:32N 53°32' E 009°55'1 1.1
2016-Jul-24 02:33N 53°32' E 009°54'1010.1
2016-Jul-24 01:33N 53°35' E 009°37'1414.4
2016-Jul-24 00:33N 53°47' E 009°23'1312.6
2016-Jul-23 23:34N 53°52' E 009°04'1211.8
2016-Jul-23 22:33N 53°52' E 008°44'1414.1
2016-Jul-23 21:34N 53°59' E 008°23'1313.0
2016-Jul-23 20:33N 53°59' E 008°01'1413.7
2016-Jul-23 19:33N 53°56' E 007°38'1110.7
2016-Jul-23 18:33N 53°54' E 007°21'1211.7
2016-Jul-23 17:33N 53°51' E 007°02'1111.2
2016-Jul-23 16:33N 53°48' E 006°43'5 4.6
2016-Jul-23 15:34N 53°47' E 006°36'1 1.0
2016-Jul-23 14:33N 53°47' E 006°37'1 0.5
2016-Jul-23 13:33N 53°47' E 006°37'1 1.1
2016-Jul-23 12:33N 53°47' E 006°35'6 5.7
2016-Jul-23 11:33N 53°45' E 006°26'8 7.9
2016-Jul-23 10:33N 53°44' E 006°13'1312.6
2016-Jul-23 09:33N 53°39' E 005°53'1413.6
2016-Jul-23 08:34N 53°35' E 005°31'1413.7
2016-Jul-23 07:33N 53°30' E 005°10'1413.7
2016-Jul-23 06:31N 53°25' E 004°47'2613.4
2016-Jul-23 04:33N 53°03' E 004°23'1312.8
2016-Jul-23 03:33N 52°52' E 004°13'1212.5
2016-Jul-23 02:33N 52°41' E 004°03'1211.7
2016-Jul-23 01:33N 52°31' E 003°54'10 9.9
2016-Jul-23 00:33N 52°21' E 003°52'7 6.9
2016-Jul-22 23:33N 52°14' E 003°53'6 6.2
2016-Jul-22 22:33N 52°08' E 003°54'7 6.7
2016-Jul-22 21:33N 52°02' E 003°57'6 6.0
2016-Jul-22 20:33N 51°57' E 004°04'0 0.0
2016-Jul-22 19:32N 51°57' E 004°04'0 0.0
2016-Jul-22 18:32N 51°57' E 004°04'0 0.0
2016-Jul-22 17:32N 51°57' E 004°04'0 0.0
2016-Jul-22 16:32N 51°57' E 004°04'0 0.0
2016-Jul-22 15:32N 51°57' E 004°04'0 0.0
2016-Jul-22 14:29N 51°57' E 004°04'0 0.0
2016-Jul-22 13:32N 51°57' E 004°04'0 0.0
2016-Jul-22 12:32N 51°57' E 004°04'0 0.0
2016-Jul-22 11:32N 51°57' E 004°04'0 0.0
2016-Jul-22 10:32N 51°57' E 004°04'0 0.0
2016-Jul-22 09:32N 51°57' E 004°04'1 0.8
2016-Jul-22 08:32N 51°58' E 004°04'0 0.0
2016-Jul-22 07:32N 51°58' E 004°04'0 0.0
2016-Jul-22 04:32N 51°58' E 004°04'0 0.0
2016-Jul-22 03:32N 51°58' E 004°04'0 0.0
2016-Jul-22 02:32N 51°58' E 004°04'0 0.0
2016-Jul-22 01:32N 51°58' E 004°04'0 0.0
2016-Jul-22 00:32N 51°58' E 004°04'0 0.0
2016-Jul-21 23:32N 51°58' E 004°04'0 0.0
2016-Jul-21 22:32N 51°58' E 004°04'0 0.0
2016-Jul-21 21:32N 51°58' E 004°04'2 1.6
2016-Jul-21 20:33N 51°58' E 004°02'0 0.4
2016-Jul-21 19:32N 51°59' E 004°02'0 0.0
2016-Jul-21 18:32N 51°59' E 004°02'0 0.0
2016-Jul-21 17:32N 51°59' E 004°02'0 0.0
2016-Jul-21 16:32N 51°59' E 004°02'0 0.0
2016-Jul-21 15:32N 51°59' E 004°02'0 0.0
2016-Jul-21 14:32N 51°59' E 004°02'0 0.0
2016-Jul-21 13:32N 51°59' E 004°02'0 0.0
2016-Jul-21 12:32N 51°59' E 004°02'0 0.0
2016-Jul-21 11:32N 51°59' E 004°02'0 0.0
2016-Jul-21 10:32N 51°59' E 004°02'0 0.0
2016-Jul-21 09:32N 51°59' E 004°02'0 0.0
2016-Jul-21 08:32N 51°59' E 004°02'0 0.0
2016-Jul-21 07:32N 51°59' E 004°02'0 0.0
2016-Jul-21 06:31N 51°59' E 004°02'0 0.0
2016-Jul-21 05:31N 51°59' E 004°02'1 1.0
2016-Jul-21 04:33N 51°59' E 004°02'1211.6
2016-Jul-21 03:34N 52°06' E 003°46'1414.1
2016-Jul-21 02:33N 52°20' E 003°48'1312.5
2016-Jul-21 01:33N 52°32' E 003°51'1313.2
2016-Jul-21 00:34N 52°45' E 003°56'1616.0
2016-Jul-20 23:33N 53°00' E 004°05'1616.7
2016-Jul-20 22:34N 53°12' E 004°25'2812.0
2016-Jul-20 20:13N 53°32' E 004°57'710.6
2016-Jul-20 19:33N 53°35' E 005°08'1110.7
2016-Jul-20 18:33N 53°38' E 005°25'1111.2
2016-Jul-20 17:33N 53°42' E 005°43'1312.9
2016-Jul-20 16:33N 53°46' E 006°03'1414.3
2016-Jul-20 15:33N 53°51' E 006°26'1514.6
2016-Jul-20 14:33N 53°54' E 006°50'1414.3
2016-Jul-20 13:34N 53°58' E 007°14'1413.7
2016-Jul-20 12:33N 54°01' E 007°36'1312.9
2016-Jul-20 11:33N 54°01' E 007°58'1313.3
2016-Jul-20 10:33N 53°60' E 008°21'1313.1
2016-Jul-20 09:33N 53°54' E 008°41'1212.1
2016-Jul-20 08:33N 53°51' E 009°01'5 5.0
2016-Jul-20 07:33N 53°54' E 009°09'3 3.0
2016-Jul-20 06:34N 53°56' E 009°12'7 7.0
2016-Jul-20 05:33N 54°02' E 009°18'7 7.0
2016-Jul-20 04:32N 54°09' E 009°21'7 6.6
2016-Jul-20 03:33N 54°11' E 009°31'17 5.4
2016-Jul-20 00:28N 54°21' E 009°55'5 5.3
2016-Jul-19 23:33N 54°22' E 010°04'3 3.0
2016-Jul-19 22:33N 54°22' E 010°09'3 2.7
2016-Jul-19 21:33N 54°24' E 010°12'9 9.4
2016-Jul-19 20:33N 54°31' E 010°22'8 8.5
2016-Jul-19 19:33N 54°34' E 010°35'1212.3
2016-Jul-19 18:33N 54°35' E 010°57'1212.4
2016-Jul-19 17:33N 54°34' E 011°18'1313.3
2016-Jul-19 16:33N 54°28' E 011°39'1312.5
2016-Jul-19 15:33N 54°26' E 011°60'1111.0
2016-Jul-19 14:33N 54°33' E 012°14'4012.9
2016-Jul-19 11:28N 54°54' E 013°13'1213.4
2016-Jul-19 10:33N 54°58' E 013°33'1313.1
2016-Jul-19 09:33N 55°02' E 013°55'1313.0
2016-Jul-19 08:33N 55°10' E 014°13'1313.5
2016-Jul-19 07:33N 55°20' E 014°28'  

Dump ship's entire track history